sensor_id;sensor_type;location;lat;lon;timestamp;temperature;humidity
16999;DHT22;10211;49.476;11.010;2022-12-11T00:02:07;-0.50;99.90
16999;DHT22;10211;49.476;11.010;2022-12-11T00:04:36;-0.50;99.90
16999;DHT22;10211;49.476;11.010;2022-12-11T00:07:02;-0.60;99.90
16999;DHT22;10211;49.476;11.010;2022-12-11T00:09:29;-0.60;99.90
16999;DHT22;10211;49.476;11.010;2022-12-11T00:11:57;-0.60;99.90
16999;DHT22;10211;49.476;11.010;2022-12-11T00:14:26;-0.60;99.90
16999;DHT22;10211;49.476;11.010;2022-12-11T00:16:53;-0.50;99.90
16999;DHT22;10211;49.476;11.010;2022-12-11T00:19:21;-0.60;99.90
16999;DHT22;10211;49.476;11.010;2022-12-11T00:21:48;-0.60;99.90
16999;DHT22;10211;49.476;11.010;2022-12-11T00:24:15;-0.50;99.90
16999;DHT22;10211;49.476;11.010;2022-12-11T00:26:43;-0.50;99.90
16999;DHT22;10211;49.476;11.010;2022-12-11T00:29:11;-0.50;99.90
16999;DHT22;10211;49.476;11.010;2022-12-11T00:31:39;-0.50;99.90
16999;DHT22;10211;49.476;11.010;2022-12-11T00:34:07;-0.50;99.90
16999;DHT22;10211;49.476;11.010;2022-12-11T00:36:34;-0.60;99.90
16999;DHT22;10211;49.476;11.010;2022-12-11T00:39:02;-0.60;99.90
16999;DHT22;10211;49.476;11.010;2022-12-11T00:41:29;-0.60;99.90
16999;DHT22;10211;49.476;11.010;2022-12-11T00:43:56;-0.60;99.90
16999;DHT22;10211;49.476;11.010;2022-12-11T00:46:24;-0.60;99.90
16999;DHT22;10211;49.476;11.010;2022-12-11T00:48:51;-0.60;99.90
16999;DHT22;10211;49.476;11.010;2022-12-11T00:51:18;-0.70;99.90
16999;DHT22;10211;49.476;11.010;2022-12-11T00:53:45;-0.70;99.90
16999;DHT22;10211;49.476;11.010;2022-12-11T00:56:13;-0.70;99.90
16999;DHT22;10211;49.476;11.010;2022-12-11T00:58:40;-0.70;99.90
16999;DHT22;10211;49.476;11.010;2022-12-11T01:04:23;-0.70;99.90
16999;DHT22;10211;49.476;11.010;2022-12-11T01:06:50;-0.70;99.90
16999;DHT22;10211;49.476;11.010;2022-12-11T01:09:17;-0.70;99.90
16999;DHT22;10211;49.476;11.010;2022-12-11T01:12:01;-1.20;99.90
16999;DHT22;10211;49.476;11.010;2022-12-11T01:14:28;-0.70;99.90
16999;DHT22;10211;49.476;11.010;2022-12-11T01:16:55;-0.70;99.90
16999;DHT22;10211;49.476;11.010;2022-12-11T01:19:21;-0.70;99.90
16999;DHT22;10211;49.476;11.010;2022-12-11T01:21:50;-0.80;99.90
16999;DHT22;10211;49.476;11.010;2022-12-11T01:24:16;-0.80;99.90
16999;DHT22;10211;49.476;11.010;2022-12-11T01:26:43;-0.80;99.90
16999;DHT22;10211;49.476;11.010;2022-12-11T01:29:10;-0.80;99.90
16999;DHT22;10211;49.476;11.010;2022-12-11T01:31:37;-0.70;99.90
16999;DHT22;10211;49.476;11.010;2022-12-11T01:34:03;-0.70;99.90
16999;DHT22;10211;49.476;11.010;2022-12-11T01:36:30;-0.70;99.90
16999;DHT22;10211;49.476;11.010;2022-12-11T01:38:58;-0.70;99.90
16999;DHT22;10211;49.476;11.010;2022-12-11T01:41:25;-0.70;99.90
16999;DHT22;10211;49.476;11.010;2022-12-11T01:43:59;-0.70;99.90
16999;DHT22;10211;49.476;11.010;2022-12-11T01:46:27;-0.70;99.90
16999;DHT22;10211;49.476;11.010;2022-12-11T01:48:54;-0.70;99.90
16999;DHT22;10211;49.476;11.010;2022-12-11T01:51:22;-0.70;99.90
16999;DHT22;10211;49.476;11.010;2022-12-11T01:53:53;-0.70;99.90
16999;DHT22;10211;49.476;11.010;2022-12-11T01:56:23;-0.70;99.90
16999;DHT22;10211;49.476;11.010;2022-12-11T01:58:52;-0.70;99.90
16999;DHT22;10211;49.476;11.010;2022-12-11T02:01:24;-0.70;99.90
16999;DHT22;10211;49.476;11.010;2022-12-11T02:03:55;-0.70;99.90
16999;DHT22;10211;49.476;11.010;2022-12-11T02:06:31;-0.60;99.90
16999;DHT22;10211;49.476;11.010;2022-12-11T02:09:00;-0.60;99.90
16999;DHT22;10211;49.476;11.010;2022-12-11T02:11:37;-0.60;99.90
16999;DHT22;10211;49.476;11.010;2022-12-11T02:14:11;-0.60;99.90
16999;DHT22;10211;49.476;11.010;2022-12-11T02:16:44;-0.60;99.90
16999;DHT22;10211;49.476;11.010;2022-12-11T02:19:20;-0.60;99.90
16999;DHT22;10211;49.476;11.010;2022-12-11T02:21:52;-0.60;99.90
16999;DHT22;10211;49.476;11.010;2022-12-11T02:27:29;-0.60;99.90
16999;DHT22;10211;49.476;11.010;2022-12-11T02:30:02;-0.70;99.90
16999;DHT22;10211;49.476;11.010;2022-12-11T02:32:36;-0.80;99.90
16999;DHT22;10211;49.476;11.010;2022-12-11T02:35:08;-0.90;99.90
16999;DHT22;10211;49.476;11.010;2022-12-11T02:37:37;-1.00;99.90
16999;DHT22;10211;49.476;11.010;2022-12-11T02:40:08;-1.00;99.90
16999;DHT22;10211;49.476;11.010;2022-12-11T02:42:37;-1.00;99.90
16999;DHT22;10211;49.476;11.010;2022-12-11T02:45:09;-1.00;99.90
16999;DHT22;10211;49.476;11.010;2022-12-11T02:47:37;-1.00;99.90
16999;DHT22;10211;49.476;11.010;2022-12-11T02:50:09;-0.90;99.90
16999;DHT22;10211;49.476;11.010;2022-12-11T02:52:37;-0.90;99.90
16999;DHT22;10211;49.476;11.010;2022-12-11T02:55:06;-0.90;99.90
16999;DHT22;10211;49.476;11.010;2022-12-11T02:57:37;-0.80;99.90
16999;DHT22;10211;49.476;11.010;2022-12-11T03:00:09;-0.80;99.90
16999;DHT22;10211;49.476;11.010;2022-12-11T03:02:36;-0.80;99.90
16999;DHT22;10211;49.476;11.010;2022-12-11T03:05:04;-0.80;99.90
16999;DHT22;10211;49.476;11.010;2022-12-11T03:07:34;-0.80;99.90
16999;DHT22;10211;49.476;11.010;2022-12-11T03:10:03;-0.80;99.90
16999;DHT22;10211;49.476;11.010;2022-12-11T03:12:33;-0.90;99.90
16999;DHT22;10211;49.476;11.010;2022-12-11T03:15:04;-0.90;99.90
16999;DHT22;10211;49.476;11.010;2022-12-11T03:17:35;-0.90;99.90
16999;DHT22;10211;49.476;11.010;2022-12-11T03:20:08;-1.00;99.90
16999;DHT22;10211;49.476;11.010;2022-12-11T03:22:40;-1.00;99.90
16999;DHT22;10211;49.476;11.010;2022-12-11T03:25:11;-1.10;99.90
16999;DHT22;10211;49.476;11.010;2022-12-11T03:27:43;-1.10;99.90
16999;DHT22;10211;49.476;11.010;2022-12-11T03:30:14;-1.20;99.90
16999;DHT22;10211;49.476;11.010;2022-12-11T03:32:46;-1.20;99.90
16999;DHT22;10211;49.476;11.010;2022-12-11T03:35:18;-1.20;99.90
16999;DHT22;10211;49.476;11.010;2022-12-11T03:37:47;-1.20;99.90
16999;DHT22;10211;49.476;11.010;2022-12-11T03:40:16;-1.20;99.90
16999;DHT22;10211;49.476;11.010;2022-12-11T03:42:47;-1.30;99.90
16999;DHT22;10211;49.476;11.010;2022-12-11T03:45:16;-1.40;99.90
16999;DHT22;10211;49.476;11.010;2022-12-11T03:47:45;-1.50;99.90
16999;DHT22;10211;49.476;11.010;2022-12-11T03:50:15;-1.60;99.90
16999;DHT22;10211;49.476;11.010;2022-12-11T03:52:45;-1.60;99.90
16999;DHT22;10211;49.476;11.010;2022-12-11T03:55:13;-1.60;99.90
16999;DHT22;10211;49.476;11.010;2022-12-11T03:57:41;-1.70;99.90
16999;DHT22;10211;49.476;11.010;2022-12-11T04:00:11;-1.60;99.90
16999;DHT22;10211;49.476;11.010;2022-12-11T04:02:38;-1.60;99.90
16999;DHT22;10211;49.476;11.010;2022-12-11T04:05:07;-1.50;99.90
16999;DHT22;10211;49.476;11.010;2022-12-11T04:07:34;-1.50;99.90
16999;DHT22;10211;49.476;11.010;2022-12-11T04:10:02;-1.40;99.90
16999;DHT22;10211;49.476;11.010;2022-12-11T04:12:29;-1.40;99.90
16999;DHT22;10211;49.476;11.010;2022-12-11T04:14:56;-1.40;99.90
16999;DHT22;10211;49.476;11.010;2022-12-11T04:17:28;-1.40;99.90
16999;DHT22;10211;49.476;11.010;2022-12-11T04:20:14;-1.40;99.90
16999;DHT22;10211;49.476;11.010;2022-12-11T04:22:58;-1.40;99.90
16999;DHT22;10211;49.476;11.010;2022-12-11T04:25:44;-1.40;99.90
16999;DHT22;10211;49.476;11.010;2022-12-11T04:28:11;-1.30;99.90
16999;DHT22;10211;49.476;11.010;2022-12-11T04:30:38;-1.40;99.90
16999;DHT22;10211;49.476;11.010;2022-12-11T04:33:05;-1.40;99.90
16999;DHT22;10211;49.476;11.010;2022-12-11T04:35:33;-1.40;99.90
16999;DHT22;10211;49.476;11.010;2022-12-11T04:37:59;-1.40;99.90
16999;DHT22;10211;49.476;11.010;2022-12-11T04:40:26;-1.40;99.90
16999;DHT22;10211;49.476;11.010;2022-12-11T04:42:53;-1.30;99.90
16999;DHT22;10211;49.476;11.010;2022-12-11T04:45:20;-1.40;99.90
16999;DHT22;10211;49.476;11.010;2022-12-11T04:47:46;-1.40;99.90
16999;DHT22;10211;49.476;11.010;2022-12-11T04:50:14;-1.40;99.90
16999;DHT22;10211;49.476;11.010;2022-12-11T04:52:42;-1.40;99.90
16999;DHT22;10211;49.476;11.010;2022-12-11T04:55:10;-1.40;99.90
16999;DHT22;10211;49.476;11.010;2022-12-11T04:57:37;-1.40;99.90
16999;DHT22;10211;49.476;11.010;2022-12-11T05:00:08;-1.50;99.90
16999;DHT22;10211;49.476;11.010;2022-12-11T05:02:35;-1.50;99.90
16999;DHT22;10211;49.476;11.010;2022-12-11T05:05:04;-1.50;99.90
16999;DHT22;10211;49.476;11.010;2022-12-11T05:07:31;-1.50;99.90
16999;DHT22;10211;49.476;11.010;2022-12-11T05:09:59;-1.50;99.90
16999;DHT22;10211;49.476;11.010;2022-12-11T05:12:26;-1.50;99.90
16999;DHT22;10211;49.476;11.010;2022-12-11T05:14:54;-1.50;99.90
16999;DHT22;10211;49.476;11.010;2022-12-11T05:17:21;-1.60;99.90
16999;DHT22;10211;49.476;11.010;2022-12-11T05:19:48;-1.60;99.90
16999;DHT22;10211;49.476;11.010;2022-12-11T05:22:16;-1.60;99.90
16999;DHT22;10211;49.476;11.010;2022-12-11T05:24:43;-1.70;99.90
16999;DHT22;10211;49.476;11.010;2022-12-11T05:27:11;-1.70;99.90
16999;DHT22;10211;49.476;11.010;2022-12-11T05:29:38;-1.70;99.90
16999;DHT22;10211;49.476;11.010;2022-12-11T05:32:05;-1.80;99.90
16999;DHT22;10211;49.476;11.010;2022-12-11T05:34:32;-1.80;99.90
16999;DHT22;10211;49.476;11.010;2022-12-11T05:36:58;-1.80;99.90
16999;DHT22;10211;49.476;11.010;2022-12-11T05:39:25;-1.80;99.90
16999;DHT22;10211;49.476;11.010;2022-12-11T05:41:52;-1.90;99.90
16999;DHT22;10211;49.476;11.010;2022-12-11T05:44:20;-1.90;99.90
16999;DHT22;10211;49.476;11.010;2022-12-11T05:46:47;-2.00;99.90
16999;DHT22;10211;49.476;11.010;2022-12-11T05:49:15;-2.00;99.90
16999;DHT22;10211;49.476;11.010;2022-12-11T05:51:42;-2.10;99.90
16999;DHT22;10211;49.476;11.010;2022-12-11T05:54:09;-2.10;99.90
16999;DHT22;10211;49.476;11.010;2022-12-11T05:56:37;-2.20;99.90
16999;DHT22;10211;49.476;11.010;2022-12-11T05:59:05;-2.30;99.90
16999;DHT22;10211;49.476;11.010;2022-12-11T06:01:35;-2.30;99.90
16999;DHT22;10211;49.476;11.010;2022-12-11T06:04:04;-2.40;99.90
16999;DHT22;10211;49.476;11.010;2022-12-11T06:06:32;-2.40;99.90
16999;DHT22;10211;49.476;11.010;2022-12-11T06:08:59;-1.80;99.90
16999;DHT22;10211;49.476;11.010;2022-12-11T06:11:28;-2.50;99.90
16999;DHT22;10211;49.476;11.010;2022-12-11T06:13:55;-2.50;99.90
16999;DHT22;10211;49.476;11.010;2022-12-11T06:16:23;-2.50;99.90
16999;DHT22;10211;49.476;11.010;2022-12-11T06:18:51;-2.50;99.90
16999;DHT22;10211;49.476;11.010;2022-12-11T06:21:19;-2.60;99.90
16999;DHT22;10211;49.476;11.010;2022-12-11T06:23:49;-2.70;99.90
16999;DHT22;10211;49.476;11.010;2022-12-11T06:26:16;-2.80;99.90
16999;DHT22;10211;49.476;11.010;2022-12-11T06:28:43;-2.90;99.90
16999;DHT22;10211;49.476;11.010;2022-12-11T06:31:11;-3.00;99.90
16999;DHT22;10211;49.476;11.010;2022-12-11T06:33:38;-3.10;99.90
16999;DHT22;10211;49.476;11.010;2022-12-11T06:36:08;-3.20;99.90
16999;DHT22;10211;49.476;11.010;2022-12-11T06:38:37;-3.30;99.90
16999;DHT22;10211;49.476;11.010;2022-12-11T06:41:06;-3.40;99.90
16999;DHT22;10211;49.476;11.010;2022-12-11T06:43:35;-3.40;99.90
16999;DHT22;10211;49.476;11.010;2022-12-11T06:46:03;-3.40;99.90
16999;DHT22;10211;49.476;11.010;2022-12-11T06:48:30;-3.30;99.90
16999;DHT22;10211;49.476;11.010;2022-12-11T06:50:56;-3.30;99.90
16999;DHT22;10211;49.476;11.010;2022-12-11T06:53:24;-3.30;99.90
16999;DHT22;10211;49.476;11.010;2022-12-11T06:55:51;-3.30;99.90
16999;DHT22;10211;49.476;11.010;2022-12-11T06:58:18;-3.40;99.90
16999;DHT22;10211;49.476;11.010;2022-12-11T07:00:46;-3.40;99.90
16999;DHT22;10211;49.476;11.010;2022-12-11T07:03:13;-3.40;99.90
16999;DHT22;10211;49.476;11.010;2022-12-11T07:05:39;-3.50;99.90
16999;DHT22;10211;49.476;11.010;2022-12-11T07:08:06;-3.50;99.90
16999;DHT22;10211;49.476;11.010;2022-12-11T07:10:34;-3.40;99.90
16999;DHT22;10211;49.476;11.010;2022-12-11T07:13:01;-3.30;99.90
16999;DHT22;10211;49.476;11.010;2022-12-11T07:15:28;-3.20;99.90
16999;DHT22;10211;49.476;11.010;2022-12-11T07:17:55;-2.90;99.90
16999;DHT22;10211;49.476;11.010;2022-12-11T07:20:21;-2.80;99.90
16999;DHT22;10211;49.476;11.010;2022-12-11T07:22:48;-2.60;99.90
16999;DHT22;10211;49.476;11.010;2022-12-11T07:25:15;-2.40;99.90
16999;DHT22;10211;49.476;11.010;2022-12-11T07:27:44;-2.40;99.90
16999;DHT22;10211;49.476;11.010;2022-12-11T07:30:11;-2.20;99.90
16999;DHT22;10211;49.476;11.010;2022-12-11T07:32:38;-2.20;99.90
16999;DHT22;10211;49.476;11.010;2022-12-11T07:35:06;-2.10;99.90
16999;DHT22;10211;49.476;11.010;2022-12-11T07:37:33;-2.10;99.90
16999;DHT22;10211;49.476;11.010;2022-12-11T07:39:59;-2.00;99.90
16999;DHT22;10211;49.476;11.010;2022-12-11T07:42:29;-2.00;99.90
16999;DHT22;10211;49.476;11.010;2022-12-11T07:44:57;-1.90;99.90
16999;DHT22;10211;49.476;11.010;2022-12-11T07:47:24;-1.90;99.90
16999;DHT22;10211;49.476;11.010;2022-12-11T07:49:50;-1.90;99.90
16999;DHT22;10211;49.476;11.010;2022-12-11T07:52:17;-1.80;99.90
16999;DHT22;10211;49.476;11.010;2022-12-11T07:54:44;-1.70;99.90
16999;DHT22;10211;49.476;11.010;2022-12-11T07:57:11;-1.60;99.90
16999;DHT22;10211;49.476;11.010;2022-12-11T07:59:37;-1.70;99.90
16999;DHT22;10211;49.476;11.010;2022-12-11T08:02:05;-1.70;99.90
16999;DHT22;10211;49.476;11.010;2022-12-11T08:04:32;-1.70;99.90
16999;DHT22;10211;49.476;11.010;2022-12-11T08:06:59;-1.70;99.90
16999;DHT22;10211;49.476;11.010;2022-12-11T08:09:26;-1.60;99.90
16999;DHT22;10211;49.476;11.010;2022-12-11T08:11:52;-1.60;99.90
16999;DHT22;10211;49.476;11.010;2022-12-11T08:14:19;-1.50;99.90
16999;DHT22;10211;49.476;11.010;2022-12-11T08:16:46;-1.50;99.90
16999;DHT22;10211;49.476;11.010;2022-12-11T08:19:15;-1.40;99.90
16999;DHT22;10211;49.476;11.010;2022-12-11T08:21:42;-1.30;99.90
16999;DHT22;10211;49.476;11.010;2022-12-11T08:24:09;-1.20;99.90
16999;DHT22;10211;49.476;11.010;2022-12-11T08:26:36;-1.20;99.90
16999;DHT22;10211;49.476;11.010;2022-12-11T08:29:03;-1.20;99.90
16999;DHT22;10211;49.476;11.010;2022-12-11T08:31:30;-1.10;99.90
16999;DHT22;10211;49.476;11.010;2022-12-11T08:33:57;-1.10;99.90
16999;DHT22;10211;49.476;11.010;2022-12-11T08:36:26;-1.00;99.90
16999;DHT22;10211;49.476;11.010;2022-12-11T08:38:55;-0.90;99.90
16999;DHT22;10211;49.476;11.010;2022-12-11T08:41:23;-0.90;99.90
16999;DHT22;10211;49.476;11.010;2022-12-11T08:43:51;-0.90;99.90
16999;DHT22;10211;49.476;11.010;2022-12-11T08:46:20;-0.90;99.90
16999;DHT22;10211;49.476;11.010;2022-12-11T08:48:48;-0.80;99.90
16999;DHT22;10211;49.476;11.010;2022-12-11T08:51:17;-0.80;99.90
16999;DHT22;10211;49.476;11.010;2022-12-11T08:53:46;-0.70;99.90
16999;DHT22;10211;49.476;11.010;2022-12-11T08:56:15;-0.70;99.90
16999;DHT22;10211;49.476;11.010;2022-12-11T08:58:43;-0.70;99.90
16999;DHT22;10211;49.476;11.010;2022-12-11T09:01:13;-0.60;99.90
16999;DHT22;10211;49.476;11.010;2022-12-11T09:03:40;-0.50;99.90
16999;DHT22;10211;49.476;11.010;2022-12-11T09:06:09;-0.40;99.90
16999;DHT22;10211;49.476;11.010;2022-12-11T09:08:36;-0.40;99.90
16999;DHT22;10211;49.476;11.010;2022-12-11T09:11:06;-0.40;99.90
16999;DHT22;10211;49.476;11.010;2022-12-11T09:13:33;-0.30;99.90
16999;DHT22;10211;49.476;11.010;2022-12-11T09:16:02;-0.20;99.90
16999;DHT22;10211;49.476;11.010;2022-12-11T09:18:29;-0.20;99.90
16999;DHT22;10211;49.476;11.010;2022-12-11T09:20:59;-0.20;99.90
16999;DHT22;10211;49.476;11.010;2022-12-11T09:23:26;-0.20;99.90
16999;DHT22;10211;49.476;11.010;2022-12-11T09:25:53;-0.30;99.90
16999;DHT22;10211;49.476;11.010;2022-12-11T09:28:22;-0.30;99.90
16999;DHT22;10211;49.476;11.010;2022-12-11T09:30:50;-0.40;99.90
16999;DHT22;10211;49.476;11.010;2022-12-11T09:33:17;-0.40;99.90
16999;DHT22;10211;49.476;11.010;2022-12-11T09:35:44;-0.50;99.90
16999;DHT22;10211;49.476;11.010;2022-12-11T09:38:10;-0.60;99.90
16999;DHT22;10211;49.476;11.010;2022-12-11T09:40:40;-0.70;99.90
16999;DHT22;10211;49.476;11.010;2022-12-11T09:43:28;-0.80;99.90
16999;DHT22;10211;49.476;11.010;2022-12-11T09:46:00;-0.80;99.90
16999;DHT22;10211;49.476;11.010;2022-12-11T09:48:28;-0.80;99.90
16999;DHT22;10211;49.476;11.010;2022-12-11T09:51:04;-0.80;99.90
16999;DHT22;10211;49.476;11.010;2022-12-11T09:53:34;-0.70;99.90
16999;DHT22;10211;49.476;11.010;2022-12-11T09:56:05;-0.70;99.90
16999;DHT22;10211;49.476;11.010;2022-12-11T09:58:42;-0.60;99.90
16999;DHT22;10211;49.476;11.010;2022-12-11T10:01:20;-0.50;99.90
16999;DHT22;10211;49.476;11.010;2022-12-11T10:06:45;-0.40;99.90
16999;DHT22;10211;49.476;11.010;2022-12-11T10:09:18;-0.40;99.90
16999;DHT22;10211;49.476;11.010;2022-12-11T10:12:00;-0.50;99.90
16999;DHT22;10211;49.476;11.010;2022-12-11T10:14:40;-0.50;99.90
16999;DHT22;10211;49.476;11.010;2022-12-11T10:17:19;-0.50;99.90
16999;DHT22;10211;49.476;11.010;2022-12-11T10:19:46;-0.50;99.90
16999;DHT22;10211;49.476;11.010;2022-12-11T10:22:17;-0.40;99.90
16999;DHT22;10211;49.476;11.010;2022-12-11T10:24:53;-0.30;99.90
16999;DHT22;10211;49.476;11.010;2022-12-11T10:27:23;-0.30;99.90
16999;DHT22;10211;49.476;11.010;2022-12-11T10:29:59;-0.40;99.90
16999;DHT22;10211;49.476;11.010;2022-12-11T10:32:34;-0.40;99.90
16999;DHT22;10211;49.476;11.010;2022-12-11T10:35:08;-0.50;99.90
16999;DHT22;10211;49.476;11.010;2022-12-11T10:37:42;-0.50;99.90
16999;DHT22;10211;49.476;11.010;2022-12-11T10:40:09;-0.50;99.90
16999;DHT22;10211;49.476;11.010;2022-12-11T10:42:37;-0.50;99.90
16999;DHT22;10211;49.476;11.010;2022-12-11T10:45:05;-0.40;99.90
16999;DHT22;10211;49.476;11.010;2022-12-11T10:47:33;-0.40;99.90
16999;DHT22;10211;49.476;11.010;2022-12-11T10:50:02;-0.30;99.90
16999;DHT22;10211;49.476;11.010;2022-12-11T10:52:32;-0.30;99.90
16999;DHT22;10211;49.476;11.010;2022-12-11T10:55:02;-0.30;99.90
16999;DHT22;10211;49.476;11.010;2022-12-11T10:57:31;-0.30;99.90
16999;DHT22;10211;49.476;11.010;2022-12-11T11:00:02;-0.20;99.90
16999;DHT22;10211;49.476;11.010;2022-12-11T11:02:33;-0.20;99.90
16999;DHT22;10211;49.476;11.010;2022-12-11T11:05:12;-0.20;99.90
16999;DHT22;10211;49.476;11.010;2022-12-11T11:07:39;-0.20;99.90
16999;DHT22;10211;49.476;11.010;2022-12-11T11:10:16;-0.20;99.90
16999;DHT22;10211;49.476;11.010;2022-12-11T11:12:45;-0.20;99.90
16999;DHT22;10211;49.476;11.010;2022-12-11T11:15:17;-0.20;99.90
16999;DHT22;10211;49.476;11.010;2022-12-11T11:17:46;-0.10;99.90
16999;DHT22;10211;49.476;11.010;2022-12-11T11:20:15;0.00;99.90
16999;DHT22;10211;49.476;11.010;2022-12-11T11:22:45;0.00;99.90
16999;DHT22;10211;49.476;11.010;2022-12-11T11:25:24;0.10;99.90
16999;DHT22;10211;49.476;11.010;2022-12-11T11:27:53;0.10;99.90
16999;DHT22;10211;49.476;11.010;2022-12-11T11:30:22;0.10;99.90
16999;DHT22;10211;49.476;11.010;2022-12-11T11:32:53;0.00;99.90
16999;DHT22;10211;49.476;11.010;2022-12-11T11:35:23;-0.10;99.90
16999;DHT22;10211;49.476;11.010;2022-12-11T11:38:01;-0.10;99.90
16999;DHT22;10211;49.476;11.010;2022-12-11T11:40:30;-0.20;99.90
16999;DHT22;10211;49.476;11.010;2022-12-11T11:43:05;-0.20;99.90
16999;DHT22;10211;49.476;11.010;2022-12-11T11:45:36;-0.30;99.90
16999;DHT22;10211;49.476;11.010;2022-12-11T11:48:23;-0.20;99.90
16999;DHT22;10211;49.476;11.010;2022-12-11T11:50:53;-0.20;99.90
16999;DHT22;10211;49.476;11.010;2022-12-11T11:53:26;-0.10;99.90
16999;DHT22;10211;49.476;11.010;2022-12-11T11:56:02;0.10;99.90
16999;DHT22;10211;49.476;11.010;2022-12-11T11:58:38;0.30;99.90
16999;DHT22;10211;49.476;11.010;2022-12-11T12:01:13;0.50;99.90
16999;DHT22;10211;49.476;11.010;2022-12-11T12:03:43;0.80;99.90
16999;DHT22;10211;49.476;11.010;2022-12-11T12:06:17;1.00;99.90
16999;DHT22;10211;49.476;11.010;2022-12-11T12:08:52;1.20;99.90
16999;DHT22;10211;49.476;11.010;2022-12-11T12:11:27;1.40;99.90
16999;DHT22;10211;49.476;11.010;2022-12-11T12:14:06;1.40;99.90
16999;DHT22;10211;49.476;11.010;2022-12-11T12:16:40;1.30;99.90
16999;DHT22;10211;49.476;11.010;2022-12-11T12:19:19;1.00;99.90
16999;DHT22;10211;49.476;11.010;2022-12-11T12:21:51;0.80;99.90
16999;DHT22;10211;49.476;11.010;2022-12-11T12:24:28;0.80;99.90
16999;DHT22;10211;49.476;11.010;2022-12-11T12:27:04;0.80;99.90
16999;DHT22;10211;49.476;11.010;2022-12-11T12:29:45;0.70;99.90
16999;DHT22;10211;49.476;11.010;2022-12-11T12:32:24;0.50;99.90
16999;DHT22;10211;49.476;11.010;2022-12-11T12:35:03;0.50;99.90
16999;DHT22;10211;49.476;11.010;2022-12-11T12:37:45;0.50;99.90
16999;DHT22;10211;49.476;11.010;2022-12-11T12:40:22;0.90;99.90
16999;DHT22;10211;49.476;11.010;2022-12-11T12:42:57;1.40;99.90
16999;DHT22;10211;49.476;11.010;2022-12-11T12:45:30;1.90;99.90
16999;DHT22;10211;49.476;11.010;2022-12-11T12:48:01;2.10;99.90
16999;DHT22;10211;49.476;11.010;2022-12-11T12:50:36;2.00;99.90
16999;DHT22;10211;49.476;11.010;2022-12-11T12:53:04;1.90;99.90
16999;DHT22;10211;49.476;11.010;2022-12-11T12:55:33;1.70;99.90
16999;DHT22;10211;49.476;11.010;2022-12-11T12:58:03;1.70;99.90
16999;DHT22;10211;49.476;11.010;2022-12-11T13:00:33;1.60;99.90
16999;DHT22;10211;49.476;11.010;2022-12-11T13:03:11;1.50;99.90
16999;DHT22;10211;49.476;11.010;2022-12-11T13:05:55;1.50;99.90
16999;DHT22;10211;49.476;11.010;2022-12-11T13:08:25;1.40;99.90
16999;DHT22;10211;49.476;11.010;2022-12-11T13:11:00;1.20;99.90
16999;DHT22;10211;49.476;11.010;2022-12-11T13:13:32;0.90;99.90
16999;DHT22;10211;49.476;11.010;2022-12-11T13:16:20;0.70;99.90
16999;DHT22;10211;49.476;11.010;2022-12-11T13:18:48;0.60;99.90
16999;DHT22;10211;49.476;11.010;2022-12-11T13:21:27;0.30;99.90
16999;DHT22;10211;49.476;11.010;2022-12-11T13:24:09;0.30;99.90
16999;DHT22;10211;49.476;11.010;2022-12-11T13:26:38;0.20;99.90
16999;DHT22;10211;49.476;11.010;2022-12-11T13:29:25;0.00;99.90
16999;DHT22;10211;49.476;11.010;2022-12-11T13:31:56;-0.20;99.90
16999;DHT22;10211;49.476;11.010;2022-12-11T13:34:24;-0.30;99.90
16999;DHT22;10211;49.476;11.010;2022-12-11T13:36:54;-0.50;99.90
16999;DHT22;10211;49.476;11.010;2022-12-11T13:39:23;-0.50;99.90
16999;DHT22;10211;49.476;11.010;2022-12-11T13:41:52;-0.60;99.90
16999;DHT22;10211;49.476;11.010;2022-12-11T13:44:23;-0.60;99.90
16999;DHT22;10211;49.476;11.010;2022-12-11T13:46:52;-0.60;99.90
16999;DHT22;10211;49.476;11.010;2022-12-11T13:49:24;-0.70;99.90
16999;DHT22;10211;49.476;11.010;2022-12-11T13:51:57;-0.70;99.90
16999;DHT22;10211;49.476;11.010;2022-12-11T13:54:26;-0.70;99.90
16999;DHT22;10211;49.476;11.010;2022-12-11T13:56:59;-0.80;99.90
16999;DHT22;10211;49.476;11.010;2022-12-11T13:59:29;-0.80;99.90
16999;DHT22;10211;49.476;11.010;2022-12-11T14:01:59;-0.80;99.90
16999;DHT22;10211;49.476;11.010;2022-12-11T14:04:27;-0.90;99.90
16999;DHT22;10211;49.476;11.010;2022-12-11T14:06:56;-0.90;99.90
16999;DHT22;10211;49.476;11.010;2022-12-11T14:09:25;-0.90;99.90
16999;DHT22;10211;49.476;11.010;2022-12-11T14:11:53;-1.00;99.90
16999;DHT22;10211;49.476;11.010;2022-12-11T14:14:26;-1.20;99.90
16999;DHT22;10211;49.476;11.010;2022-12-11T14:16:54;-1.30;99.90
16999;DHT22;10211;49.476;11.010;2022-12-11T14:19:22;-1.40;99.90
16999;DHT22;10211;49.476;11.010;2022-12-11T14:22:17;-1.40;99.90
16999;DHT22;10211;49.476;11.010;2022-12-11T14:24:48;-1.40;99.90
16999;DHT22;10211;49.476;11.010;2022-12-11T14:27:16;-1.40;99.90
16999;DHT22;10211;49.476;11.010;2022-12-11T14:29:44;-1.40;99.90
16999;DHT22;10211;49.476;11.010;2022-12-11T14:32:16;-1.40;99.90
16999;DHT22;10211;49.476;11.010;2022-12-11T14:34:45;-1.40;99.90
16999;DHT22;10211;49.476;11.010;2022-12-11T14:37:16;-1.40;99.90
16999;DHT22;10211;49.476;11.010;2022-12-11T14:39:48;-1.40;99.90
16999;DHT22;10211;49.476;11.010;2022-12-11T14:42:18;-1.40;99.90
16999;DHT22;10211;49.476;11.010;2022-12-11T14:44:48;-1.40;99.90
16999;DHT22;10211;49.476;11.010;2022-12-11T14:47:18;-1.40;99.90
16999;DHT22;10211;49.476;11.010;2022-12-11T14:49:49;-1.40;99.90
16999;DHT22;10211;49.476;11.010;2022-12-11T14:52:20;-1.50;99.90
16999;DHT22;10211;49.476;11.010;2022-12-11T14:54:50;-1.50;99.90
16999;DHT22;10211;49.476;11.010;2022-12-11T14:57:21;-1.50;99.90
16999;DHT22;10211;49.476;11.010;2022-12-11T14:59:50;-1.60;99.90
16999;DHT22;10211;49.476;11.010;2022-12-11T15:02:25;-1.60;99.90
16999;DHT22;10211;49.476;11.010;2022-12-11T15:05:11;-1.60;99.90
16999;DHT22;10211;49.476;11.010;2022-12-11T15:07:42;-1.60;99.90
16999;DHT22;10211;49.476;11.010;2022-12-11T15:10:22;-1.60;99.90
16999;DHT22;10211;49.476;11.010;2022-12-11T15:12:49;-1.50;99.90
16999;DHT22;10211;49.476;11.010;2022-12-11T15:15:17;-1.60;99.90
16999;DHT22;10211;49.476;11.010;2022-12-11T15:17:45;-1.60;99.90
16999;DHT22;10211;49.476;11.010;2022-12-11T15:20:21;-1.60;99.90
16999;DHT22;10211;49.476;11.010;2022-12-11T15:22:52;-1.60;99.90
16999;DHT22;10211;49.476;11.010;2022-12-11T15:25:21;-1.60;99.90
16999;DHT22;10211;49.476;11.010;2022-12-11T15:27:50;-1.60;99.90
16999;DHT22;10211;49.476;11.010;2022-12-11T15:30:31;-1.60;99.90
16999;DHT22;10211;49.476;11.010;2022-12-11T15:33:17;-1.60;99.90
16999;DHT22;10211;49.476;11.010;2022-12-11T15:35:54;-1.60;99.90
16999;DHT22;10211;49.476;11.010;2022-12-11T15:38:29;-1.60;99.90
16999;DHT22;10211;49.476;11.010;2022-12-11T15:40:56;-1.60;99.90
16999;DHT22;10211;49.476;11.010;2022-12-11T15:43:23;-1.60;99.90
16999;DHT22;10211;49.476;11.010;2022-12-11T15:45:50;-1.60;99.90